Time;durP1;ratioP1;P1;durP2;ratioP2;P2;SDS_P1;SDS_P2;PMS_P1;PMS_P2;Temp;Humidity;BMP_temperature;BMP_pressure;BME280_temperature;BME280_humidity;BME280_pressure;Samples;Min_cycle;Max_cycle;Signal;HPM_P1;HPM_P2
2022/06/06 07:20:38;;;;;;;;;;;23.60;62.60;;;;;;6172583;23;20034;-97
2022/06/06 07:23:09;;;;;;;;;;;23.70;61.20;;;;;;6156714;23;19999;-96
2022/06/06 07:51:37;;;;;;;;;;;24.50;58.50;;;;;;6184101;22;19966;-96
2022/06/06 07:54:10;;;;;;;;;;;24.60;58.10;;;;;;6183441;23;19934;-96
2022/06/06 07:56:55;;;;;;;;;;;24.70;57.60;;;;;;6158446;23;19940;-96
2022/06/06 08:02:22;;;;;;;;;;;24.70;57.00;;;;;;6159291;22;19960;-96
2022/06/06 08:16:07;;;;;;;;;;;25.10;54.10;;;;;;6144426;23;19977;-96
2022/06/06 08:24:11;;;;;;;;;;;25.30;53.80;;;;;;6204725;23;19963;-96
2022/06/06 08:26:42;;;;;;;;;;;25.30;54.00;;;;;;6188320;23;19930;-96
2022/06/06 08:29:16;;;;;;;;;;;25.40;54.40;;;;;;6188795;23;19942;-96
2022/06/06 08:31:42;;;;;;;;;;;25.40;52.30;;;;;;6211463;23;19939;-96
2022/06/06 08:52:28;;;;;;;;;;;25.90;53.80;;;;;;6174292;23;20003;-96
2022/06/06 08:55:16;;;;;;;;;;;26.00;51.10;;;;;;6187072;23;19957;-96
2022/06/06 09:03:19;;;;;;;;;;;26.20;51.70;;;;;;6174082;23;19978;-96
2022/06/06 09:11:15;;;;;;;;;;;26.50;52.90;;;;;;6180282;23;19987;-96
2022/06/06 09:21:31;;;;;;;;;;;26.70;51.30;;;;;;6174789;23;19969;-96
2022/06/06 09:24:16;;;;;;;;;;;26.70;51.80;;;;;;6146566;23;19943;-96
2022/06/06 09:26:50;;;;;;;;;;;26.70;50.00;;;;;;6176088;23;20029;-96
2022/06/06 09:29:30;;;;;;;;;;;26.80;50.30;;;;;;6149526;23;19938;-96
2022/06/06 09:31:56;;;;;;;;;;;26.80;47.80;;;;;;6153060;23;20010;-96
2022/06/06 09:34:28;;;;;;;;;;;26.90;47.70;;;;;;6152464;23;19957;-96
2022/06/06 09:37:11;;;;;;;;;;;27.00;48.90;;;;;;6154090;23;19930;-97
2022/06/06 11:07:46;;;;;;;;;;;29.80;42.30;;;;;;6238649;22;19972;-96
2022/06/06 11:31:33;;;;;;;;;;;30.20;39.30;;;;;;6232911;23;19989;-96
2022/06/06 11:34:27;;;;;;;;;;;30.40;39.70;;;;;;6243777;23;19981;-96
2022/06/06 11:37:15;;;;;;;;;;;30.60;39.20;;;;;;6244643;23;19949;-96
2022/06/06 11:42:24;;;;;;;;;;;31.00;40.80;;;;;;6211876;23;20045;-96
2022/06/06 11:44:53;;;;;;;;;;;31.20;39.30;;;;;;6210473;23;19946;-96
2022/06/06 11:47:22;;;;;;;;;;;31.50;38.20;;;;;;6201514;23;19942;-96
2022/06/06 11:50:07;;;;;;;;;;;31.60;36.10;;;;;;6240267;23;19968;-96
2022/06/06 11:52:43;;;;;;;;;;;31.50;36.70;;;;;;6217677;23;19950;-96
2022/06/06 11:55:28;;;;;;;;;;;31.50;36.20;;;;;;6218839;23;19924;-96
2022/06/06 11:58:04;;;;;;;;;;;31.40;36.20;;;;;;6244628;23;19940;-96
2022/06/06 12:00:49;;;;;;;;;;;31.20;37.10;;;;;;6240034;23;19984;-96
2022/06/06 12:03:18;;;;;;;;;;;31.00;36.60;;;;;;6228258;23;19945;-96
2022/06/06 12:05:46;;;;;;;;;;;30.60;37.10;;;;;;6218300;23;20401;-96
2022/06/06 12:08:18;;;;;;;;;;;30.70;37.50;;;;;;6217365;23;20285;-96
2022/06/06 12:10:43;;;;;;;;;;;30.90;37.40;;;;;;6217819;23;19938;-96
2022/06/06 12:13:18;;;;;;;;;;;31.10;38.20;;;;;;6218183;23;20265;-96
2022/06/06 12:16:02;;;;;;;;;;;31.00;37.80;;;;;;6220102;23;19937;-96
2022/06/06 12:18:43;;;;;;;;;;;31.40;35.90;;;;;;6217877;23;20363;-96
2022/06/06 12:21:24;;;;;;;;;;;31.70;35.90;;;;;;6220630;23;20409;-96
2022/06/06 12:24:10;;;;;;;;;;;31.90;36.60;;;;;;6219296;23;19988;-96
2022/06/06 12:26:38;;;;;;;;;;;32.00;37.10;;;;;;6218368;23;19956;-96
2022/06/06 12:29:28;;;;;;;;;;;31.80;39.20;;;;;;6217275;23;20000;-96
2022/06/06 12:32:06;;;;;;;;;;;32.30;37.10;;;;;;6217055;23;20010;-96
2022/06/06 12:34:41;;;;;;;;;;;32.40;38.00;;;;;;6217367;23;19938;-96
2022/06/06 12:37:28;;;;;;;;;;;32.70;35.20;;;;;;6216778;23;19945;-96
2022/06/06 12:40:14;;;;;;;;;;;32.60;36.50;;;;;;6220021;23;19938;-96
2022/06/06 12:42:46;;;;;;;;;;;32.70;36.10;;;;;;6217414;23;20031;-96
2022/06/06 12:45:18;;;;;;;;;;;32.90;34.90;;;;;;6190358;23;19935;-96
2022/06/06 12:47:46;;;;;;;;;;;32.50;34.50;;;;;;6217398;23;19932;-96
2022/06/06 12:50:11;;;;;;;;;;;32.70;35.00;;;;;;6217316;23;19938;-96
2022/06/06 12:52:37;;;;;;;;;;;33.10;33.30;;;;;;6217261;23;20337;-96
2022/06/06 12:55:34;;;;;;;;;;;33.20;34.10;;;;;;6216816;23;19978;-96
2022/06/06 12:58:04;;;;;;;;;;;33.10;34.10;;;;;;6217636;23;20007;-96
2022/06/06 13:03:15;;;;;;;;;;;34.00;32.00;;;;;;6217054;23;20002;-96
2022/06/06 13:05:49;;;;;;;;;;;34.60;33.20;;;;;;6217401;23;19932;-96
2022/06/06 13:08:27;;;;;;;;;;;35.30;31.00;;;;;;6217286;23;19942;-96
2022/06/06 13:11:03;;;;;;;;;;;35.50;28.30;;;;;;6218227;23;19941;-96
2022/06/06 13:13:52;;;;;;;;;;;35.10;29.10;;;;;;6218103;23;20006;-96
2022/06/06 13:16:34;;;;;;;;;;;35.70;30.40;;;;;;6217616;23;19981;-96
2022/06/06 13:19:05;;;;;;;;;;;36.20;29.50;;;;;;6218445;23;19941;-96
2022/06/06 13:21:44;;;;;;;;;;;36.60;27.60;;;;;;6219952;23;19972;-96
2022/06/06 13:24:28;;;;;;;;;;;37.40;27.50;;;;;;6192767;23;19942;-96
2022/06/06 13:26:55;;;;;;;;;;;37.60;25.70;;;;;;6222877;23;19943;-96
2022/06/06 13:29:27;;;;;;;;;;;37.60;27.10;;;;;;6217568;23;19940;-96
2022/06/06 13:32:15;;;;;;;;;;;37.20;26.40;;;;;;6216643;23;19942;-96
2022/06/06 13:34:41;;;;;;;;;;;37.20;26.30;;;;;;6216285;23;19943;-96
2022/06/06 13:37:13;;;;;;;;;;;38.10;27.70;;;;;;6216949;23;19939;-96
2022/06/06 13:39:57;;;;;;;;;;;38.00;26.80;;;;;;6216552;23;19937;-96
2022/06/06 13:42:41;;;;;;;;;;;38.30;26.00;;;;;;6216262;23;19999;-96
2022/06/06 13:45:25;;;;;;;;;;;39.10;25.10;;;;;;6216539;23;19938;-96
2022/06/06 13:47:51;;;;;;;;;;;38.20;24.50;;;;;;6216991;23;19932;-96
2022/06/06 13:50:22;;;;;;;;;;;37.70;25.40;;;;;;6216886;23;20308;-96
2022/06/06 13:53:06;;;;;;;;;;;37.50;25.80;;;;;;6216723;23;19942;-96
2022/06/06 13:55:37;;;;;;;;;;;37.60;26.30;;;;;;6189672;23;19982;-96
2022/06/06 13:58:03;;;;;;;;;;;37.80;25.10;;;;;;6216465;23;20257;-96
2022/06/06 14:00:44;;;;;;;;;;;37.80;24.50;;;;;;6189808;23;20073;-96
2022/06/06 14:03:28;;;;;;;;;;;38.10;25.80;;;;;;6217201;23;19933;-96
2022/06/06 14:06:13;;;;;;;;;;;38.70;25.30;;;;;;6189773;23;19936;-96
2022/06/06 14:08:50;;;;;;;;;;;38.40;24.50;;;;;;6217093;23;19930;-96
2022/06/06 14:11:42;;;;;;;;;;;38.50;25.70;;;;;;6216297;23;19947;-96
2022/06/06 14:14:08;;;;;;;;;;;39.10;25.90;;;;;;6216306;23;19983;-96
2022/06/06 14:16:44;;;;;;;;;;;39.00;25.70;;;;;;6191345;23;19976;-96
2022/06/06 14:19:16;;;;;;;;;;;39.40;25.00;;;;;;6218196;23;19940;-96
2022/06/06 14:21:48;;;;;;;;;;;39.30;24.10;;;;;;6218152;23;20042;-96
2022/06/06 14:24:15;;;;;;;;;;;38.70;23.50;;;;;;6218417;23;20335;-96
2022/06/06 14:26:42;;;;;;;;;;;39.50;23.80;;;;;;6217308;23;19952;-96
2022/06/06 14:29:11;;;;;;;;;;;40.60;22.00;;;;;;6218151;23;19929;-96
2022/06/06 14:31:48;;;;;;;;;;;40.10;23.30;;;;;;6218102;23;19942;-96
2022/06/06 14:34:20;;;;;;;;;;;40.10;22.00;;;;;;6217986;23;19961;-96
2022/06/06 14:36:47;;;;;;;;;;;40.10;22.80;;;;;;6191839;23;20013;-96
2022/06/06 14:39:21;;;;;;;;;;;40.80;22.30;;;;;;6217450;23;19937;-96
2022/06/06 14:41:47;;;;;;;;;;;40.20;24.60;;;;;;6218284;23;19956;-96
2022/06/06 14:44:13;;;;;;;;;;;39.20;24.30;;;;;;6217796;23;19970;-96
2022/06/06 14:46:46;;;;;;;;;;;38.60;24.70;;;;;;6217251;23;19936;-96
2022/06/06 14:49:21;;;;;;;;;;;38.40;25.10;;;;;;6218200;23;19944;-96
2022/06/06 14:51:47;;;;;;;;;;;37.50;25.70;;;;;;6217956;23;19972;-95
2022/06/06 14:54:14;;;;;;;;;;;37.20;25.90;;;;;;6217887;23;19939;-96
2022/06/06 14:56:42;;;;;;;;;;;36.90;26.70;;;;;;6217988;23;19946;-96
2022/06/06 14:59:11;;;;;;;;;;;37.00;27.60;;;;;;6217987;23;19979;-96
2022/06/06 15:01:37;;;;;;;;;;;37.20;27.30;;;;;;6218323;23;20057;-96
2022/06/06 15:04:29;;;;;;;;;;;37.20;25.10;;;;;;6191258;23;20310;-96
2022/06/06 15:06:55;;;;;;;;;;;38.40;25.20;;;;;;6220956;23;19938;-96
2022/06/06 15:09:39;;;;;;;;;;;39.50;23.50;;;;;;6226586;23;19936;-95
2022/06/06 15:12:06;;;;;;;;;;;39.70;24.00;;;;;;6217658;23;19932;-96
2022/06/06 15:14:32;;;;;;;;;;;39.70;23.50;;;;;;6218142;23;19940;-96
2022/06/06 15:16:59;;;;;;;;;;;39.30;23.20;;;;;;6218815;23;20344;-96
2022/06/06 15:19:27;;;;;;;;;;;39.50;24.50;;;;;;6227738;23;19938;-96
2022/06/06 15:21:53;;;;;;;;;;;39.60;23.90;;;;;;6195785;23;19994;-96
2022/06/06 15:24:32;;;;;;;;;;;38.60;24.90;;;;;;6217883;23;19939;-96
2022/06/06 15:27:16;;;;;;;;;;;38.00;26.80;;;;;;6217327;23;19994;-96
2022/06/06 15:29:47;;;;;;;;;;;37.10;26.10;;;;;;6190220;23;19943;-95
2022/06/06 15:32:27;;;;;;;;;;;35.40;27.60;;;;;;6190872;23;19950;-95
2022/06/06 15:35:07;;;;;;;;;;;34.20;30.50;;;;;;6217917;23;19976;-96
2022/06/06 15:37:35;;;;;;;;;;;33.80;31.70;;;;;;6217773;23;20013;-95
2022/06/06 15:40:10;;;;;;;;;;;33.60;33.00;;;;;;6217959;23;19954;-96
2022/06/06 15:42:36;;;;;;;;;;;33.40;31.40;;;;;;6217599;23;19966;-95
2022/06/06 15:45:12;;;;;;;;;;;33.30;32.40;;;;;;6190879;23;19934;-95
2022/06/06 15:47:38;;;;;;;;;;;33.00;33.00;;;;;;6190880;23;19943;-94
2022/06/06 15:50:26;;;;;;;;;;;32.60;33.00;;;;;;6217509;23;20278;-96
2022/06/06 15:53:11;;;;;;;;;;;32.50;33.50;;;;;;6218083;23;19943;-96
2022/06/06 15:55:43;;;;;;;;;;;32.70;34.10;;;;;;6190577;23;19963;-96
2022/06/06 15:58:17;;;;;;;;;;;32.80;33.00;;;;;;6218238;23;19996;-95
2022/06/06 16:00:55;;;;;;;;;;;32.90;32.60;;;;;;6217258;23;19989;-96
2022/06/06 16:03:39;;;;;;;;;;;32.60;32.40;;;;;;6217553;23;19943;-95
2022/06/06 16:06:06;;;;;;;;;;;32.40;33.80;;;;;;6190678;23;19941;-96
2022/06/06 16:08:32;;;;;;;;;;;32.50;32.80;;;;;;6217263;23;19933;-96
2022/06/06 16:11:03;;;;;;;;;;;32.60;32.10;;;;;;6217606;23;19965;-96
2022/06/06 16:13:35;;;;;;;;;;;32.90;33.40;;;;;;6217001;23;19943;-96
2022/06/06 16:16:03;;;;;;;;;;;32.90;34.20;;;;;;6190534;23;20351;-96
2022/06/06 16:18:32;;;;;;;;;;;33.10;34.40;;;;;;6217328;23;19943;-95
2022/06/06 16:21:05;;;;;;;;;;;32.80;33.90;;;;;;6217209;23;19952;-95
2022/06/06 16:23:34;;;;;;;;;;;32.70;32.90;;;;;;6217624;23;19957;-96
2022/06/06 16:26:06;;;;;;;;;;;32.60;33.20;;;;;;6190307;23;20380;-95
2022/06/06 16:28:36;;;;;;;;;;;32.70;32.60;;;;;;6189754;23;19979;-95
2022/06/06 16:31:02;;;;;;;;;;;32.60;34.20;;;;;;6217018;23;20245;-96
2022/06/06 16:33:31;;;;;;;;;;;32.60;33.50;;;;;;6217507;23;19954;-96
2022/06/06 16:35:59;;;;;;;;;;;32.60;34.10;;;;;;6217388;23;19948;-96
2022/06/06 16:38:28;;;;;;;;;;;32.60;34.80;;;;;;6216882;23;20256;-95
2022/06/06 16:40:55;;;;;;;;;;;32.60;32.80;;;;;;6217140;23;20395;-95
2022/06/06 16:49:20;;;;;;;;;;;32.20;34.00;;;;;;6216988;23;20404;-95
2022/06/06 16:51:51;;;;;;;;;;;32.20;34.10;;;;;;6217317;23;19970;-95
2022/06/06 16:54:37;;;;;;;;;;;32.50;34.40;;;;;;6215740;23;20507;-96
2022/06/06 16:57:24;;;;;;;;;;;32.40;34.40;;;;;;6216878;23;20350;-95
2022/06/06 17:00:04;;;;;;;;;;;32.30;35.00;;;;;;6216981;23;19937;-95
2022/06/06 17:02:34;;;;;;;;;;;32.10;35.20;;;;;;6217243;23;19941;-95
2022/06/06 17:05:23;;;;;;;;;;;31.90;33.90;;;;;;6216836;23;19935;-96
2022/06/06 17:08:06;;;;;;;;;;;31.80;34.10;;;;;;6216260;23;19941;-96
2022/06/06 17:10:53;;;;;;;;;;;31.70;34.50;;;;;;6216643;23;19936;-95
2022/06/06 17:13:21;;;;;;;;;;;31.50;34.70;;;;;;6216911;23;19948;-96
2022/06/06 17:15:46;;;;;;;;;;;31.20;35.60;;;;;;6216909;23;19938;-96
2022/06/06 17:18:30;;;;;;;;;;;31.30;36.20;;;;;;6217086;23;19937;-96
2022/06/06 17:21:01;;;;;;;;;;;31.30;38.00;;;;;;6216634;23;20033;-96
2022/06/06 17:23:31;;;;;;;;;;;31.50;35.40;;;;;;6216480;23;19965;-96
2022/06/06 17:25:58;;;;;;;;;;;31.60;36.80;;;;;;6216942;23;20495;-96
2022/06/06 17:28:42;;;;;;;;;;;31.30;34.50;;;;;;6216596;23;19937;-96
2022/06/06 17:31:08;;;;;;;;;;;31.10;37.90;;;;;;6217044;23;19938;-96
2022/06/06 17:33:48;;;;;;;;;;;30.90;37.10;;;;;;6216602;23;19958;-96
2022/06/06 17:36:21;;;;;;;;;;;30.90;36.90;;;;;;6217333;23;20348;-96
2022/06/06 17:38:47;;;;;;;;;;;30.70;38.70;;;;;;6216986;23;19932;-96
2022/06/06 17:41:18;;;;;;;;;;;30.60;39.00;;;;;;6217152;23;20012;-96
2022/06/06 17:43:51;;;;;;;;;;;30.40;39.80;;;;;;6216465;23;20008;-96
2022/06/06 17:46:25;;;;;;;;;;;30.10;38.70;;;;;;6190181;23;19991;-96
2022/06/06 17:49:10;;;;;;;;;;;30.00;40.10;;;;;;6217332;23;20005;-96
2022/06/06 17:51:35;;;;;;;;;;;29.90;40.70;;;;;;6217838;23;19948;-96
2022/06/06 17:54:14;;;;;;;;;;;29.80;40.40;;;;;;6217629;23;19937;-96
2022/06/06 17:56:52;;;;;;;;;;;29.80;40.80;;;;;;6218173;23;19948;-96
2022/06/06 17:59:32;;;;;;;;;;;29.70;41.00;;;;;;6218620;23;19945;-96
2022/06/06 18:02:17;;;;;;;;;;;29.60;41.50;;;;;;6220283;23;19957;-96
2022/06/06 18:05:00;;;;;;;;;;;29.50;41.50;;;;;;6220473;23;19948;-96
2022/06/06 18:07:35;;;;;;;;;;;29.40;42.00;;;;;;6200086;23;19984;-96
2022/06/06 18:10:03;;;;;;;;;;;29.30;42.40;;;;;;6198173;23;19935;-96
2022/06/06 18:12:38;;;;;;;;;;;29.20;43.20;;;;;;6197948;23;19949;-97
2022/06/06 18:15:03;;;;;;;;;;;29.10;44.20;;;;;;6198891;23;20029;-96
2022/06/06 18:17:44;;;;;;;;;;;29.00;44.90;;;;;;6199505;23;19944;-96
2022/06/06 18:20:31;;;;;;;;;;;28.80;45.90;;;;;;6226489;23;19938;-96
2022/06/06 18:23:00;;;;;;;;;;;28.70;46.20;;;;;;6227799;23;19986;-96
2022/06/06 18:25:29;;;;;;;;;;;28.60;49.30;;;;;;6203240;23;19973;-96
2022/06/06 18:27:55;;;;;;;;;;;28.30;51.80;;;;;;6230929;23;20019;-96
2022/06/06 18:30:28;;;;;;;;;;;28.00;50.00;;;;;;6203836;23;19943;-96
2022/06/06 18:32:55;;;;;;;;;;;27.90;50.90;;;;;;6204609;23;19945;-96
2022/06/06 18:35:20;;;;;;;;;;;27.80;52.30;;;;;;6198121;23;19960;-96
2022/06/06 18:37:49;;;;;;;;;;;27.70;52.30;;;;;;6195467;23;19950;-96
2022/06/06 18:40:15;;;;;;;;;;;27.50;52.10;;;;;;6193188;23;20377;-96
2022/06/06 18:42:40;;;;;;;;;;;27.30;51.90;;;;;;6218972;23;19981;-96
2022/06/06 18:45:17;;;;;;;;;;;27.20;54.70;;;;;;6217531;23;19935;-96
2022/06/06 18:47:44;;;;;;;;;;;27.20;53.00;;;;;;6218849;23;19939;-96
2022/06/06 18:50:29;;;;;;;;;;;27.10;50.40;;;;;;6198926;23;19940;-96
2022/06/06 18:53:00;;;;;;;;;;;27.10;49.20;;;;;;6201208;23;19938;-96
2022/06/06 18:55:28;;;;;;;;;;;27.00;51.10;;;;;;6228021;23;19945;-96
2022/06/06 18:58:12;;;;;;;;;;;27.00;55.50;;;;;;6201824;23;19949;-96
2022/06/06 19:00:38;;;;;;;;;;;26.70;57.90;;;;;;6229831;23;19957;-96
2022/06/06 19:03:04;;;;;;;;;;;26.40;56.80;;;;;;6204534;23;19954;-96
2022/06/06 19:05:31;;;;;;;;;;;26.20;57.00;;;;;;6204939;23;19962;-96
2022/06/06 19:08:13;;;;;;;;;;;26.00;56.60;;;;;;6231992;23;19939;-96
2022/06/06 19:10:41;;;;;;;;;;;25.90;52.50;;;;;;6204435;23;20367;-96
2022/06/06 19:13:18;;;;;;;;;;;25.90;54.10;;;;;;6205227;23;19943;-96
2022/06/06 19:15:45;;;;;;;;;;;26.00;54.90;;;;;;6231339;23;19947;-96
2022/06/06 19:18:13;;;;;;;;;;;26.00;56.60;;;;;;6230867;23;19945;-96
2022/06/06 19:20:43;;;;;;;;;;;25.90;54.80;;;;;;6206084;23;19955;-96
2022/06/06 19:23:13;;;;;;;;;;;25.80;54.50;;;;;;6232539;23;19933;-96
2022/06/06 19:25:46;;;;;;;;;;;25.80;56.50;;;;;;6207394;23;20041;-96
2022/06/06 19:28:24;;;;;;;;;;;25.80;57.30;;;;;;6207588;23;19948;-97
2022/06/06 19:30:51;;;;;;;;;;;25.70;58.90;;;;;;6234314;23;19942;-96
2022/06/06 19:33:19;;;;;;;;;;;25.60;58.90;;;;;;6234978;23;19938;-96
2022/06/06 19:35:54;;;;;;;;;;;25.40;59.10;;;;;;6208073;23;19970;-96
2022/06/06 19:38:20;;;;;;;;;;;25.10;59.60;;;;;;6234945;23;19936;-96
2022/06/06 19:40:52;;;;;;;;;;;24.90;59.60;;;;;;6198576;23;20434;-96
2022/06/06 19:43:18;;;;;;;;;;;24.80;60.00;;;;;;6224074;23;20024;-96
2022/06/06 19:45:50;;;;;;;;;;;24.70;61.20;;;;;;6196538;23;19946;-96
2022/06/06 19:48:19;;;;;;;;;;;24.60;60.20;;;;;;6223977;23;19946;-96
2022/06/06 19:50:47;;;;;;;;;;;24.40;61.30;;;;;;6223869;23;19928;-96
2022/06/06 19:53:18;;;;;;;;;;;24.20;63.80;;;;;;6210120;23;19952;-96
2022/06/06 19:55:49;;;;;;;;;;;24.00;64.40;;;;;;6213737;23;19939;-96
2022/06/06 19:58:15;;;;;;;;;;;23.80;64.30;;;;;;6214081;23;19944;-96
2022/06/06 20:00:42;;;;;;;;;;;23.80;64.20;;;;;;6213740;23;20094;-96
2022/06/06 20:03:14;;;;;;;;;;;23.90;64.40;;;;;;6213891;23;19946;-96
2022/06/06 20:05:41;;;;;;;;;;;23.90;63.90;;;;;;6215099;23;19952;-96
2022/06/06 20:08:09;;;;;;;;;;;23.80;63.60;;;;;;6241102;23;19930;-96
2022/06/06 20:10:35;;;;;;;;;;;23.70;66.80;;;;;;6214405;23;19942;-96
2022/06/06 20:13:18;;;;;;;;;;;23.70;66.00;;;;;;6213500;23;19944;-96
2022/06/06 20:15:44;;;;;;;;;;;23.70;63.60;;;;;;6214345;23;19946;-96
2022/06/06 20:18:21;;;;;;;;;;;23.70;63.50;;;;;;6240125;23;19937;-96
2022/06/06 20:20:47;;;;;;;;;;;23.60;64.20;;;;;;6213292;23;19962;-96
2022/06/06 20:23:32;;;;;;;;;;;23.70;65.80;;;;;;6239247;23;19931;-96
2022/06/06 20:25:58;;;;;;;;;;;23.70;67.50;;;;;;6212902;23;20010;-96
2022/06/06 20:28:40;;;;;;;;;;;23.50;67.90;;;;;;6240634;23;19948;-96
2022/06/06 20:34:00;;;;;;;;;;;23.20;70.10;;;;;;6239863;23;19929;-96
2022/06/06 20:36:32;;;;;;;;;;;23.20;69.00;;;;;;6239452;23;19913;-97
2022/06/06 20:39:03;;;;;;;;;;;23.30;69.10;;;;;;6212858;23;19952;-96
2022/06/06 20:41:37;;;;;;;;;;;23.30;68.80;;;;;;6239475;23;19967;-96
2022/06/06 20:44:09;;;;;;;;;;;23.30;70.60;;;;;;6240237;23;20430;-97
2022/06/06 20:46:42;;;;;;;;;;;23.20;70.40;;;;;;6239567;23;19943;-96
2022/06/06 20:49:17;;;;;;;;;;;23.10;69.90;;;;;;6213970;23;19947;-96
2022/06/06 20:51:44;;;;;;;;;;;23.00;70.50;;;;;;6212823;23;19942;-96
2022/06/06 20:54:28;;;;;;;;;;;22.80;71.10;;;;;;6213504;23;19935;-96
2022/06/06 20:57:13;;;;;;;;;;;22.70;71.40;;;;;;6208201;23;20043;-96
2022/06/06 20:59:39;;;;;;;;;;;22.50;71.00;;;;;;6202998;23;19942;-96
2022/06/06 21:02:04;;;;;;;;;;;22.40;71.90;;;;;;6228207;23;19962;-96
2022/06/06 21:04:30;;;;;;;;;;;22.30;69.40;;;;;;6230549;23;19953;-96
2022/06/06 21:06:56;;;;;;;;;;;22.40;69.30;;;;;;6228990;23;19970;-96
2022/06/06 21:09:27;;;;;;;;;;;22.60;68.90;;;;;;6232821;23;20358;-96
2022/06/06 21:11:56;;;;;;;;;;;22.60;67.40;;;;;;6207559;23;20044;-96
2022/06/06 21:14:22;;;;;;;;;;;22.60;66.60;;;;;;6208712;23;19962;-96
2022/06/06 21:16:48;;;;;;;;;;;22.70;68.00;;;;;;6236025;23;19941;-96
2022/06/06 21:19:14;;;;;;;;;;;22.60;70.20;;;;;;6208394;23;19975;-96
2022/06/06 21:21:42;;;;;;;;;;;22.30;71.30;;;;;;6232582;23;19956;-96
2022/06/06 21:24:10;;;;;;;;;;;22.00;72.00;;;;;;6232685;23;19948;-96
2022/06/06 21:26:36;;;;;;;;;;;22.00;72.40;;;;;;6206849;23;20010;-96
2022/06/06 21:29:02;;;;;;;;;;;22.00;73.00;;;;;;6234184;23;19932;-96
2022/06/06 21:31:28;;;;;;;;;;;22.00;72.90;;;;;;6205114;23;19923;-96
2022/06/06 21:33:54;;;;;;;;;;;22.10;73.00;;;;;;6207486;23;19944;-96
2022/06/06 21:36:20;;;;;;;;;;;22.20;73.30;;;;;;6234442;23;19933;-96
2022/06/06 21:38:45;;;;;;;;;;;21.80;73.90;;;;;;6207580;23;19968;-96
2022/06/06 21:41:13;;;;;;;;;;;21.70;74.90;;;;;;6207051;23;20402;-96
2022/06/06 21:43:39;;;;;;;;;;;21.80;74.50;;;;;;6207739;23;19977;-96
2022/06/06 21:46:06;;;;;;;;;;;21.70;74.60;;;;;;6207026;23;19960;-96
2022/06/06 21:48:32;;;;;;;;;;;21.90;75.20;;;;;;6206556;23;19949;-96
2022/06/06 21:53:58;;;;;;;;;;;21.70;74.60;;;;;;6231727;23;19941;-96
2022/06/06 21:56:32;;;;;;;;;;;21.60;74.90;;;;;;6206819;23;19948;-96
2022/06/06 21:58:59;;;;;;;;;;;21.50;75.40;;;;;;6206249;23;19945;-96
2022/06/06 22:01:25;;;;;;;;;;;21.40;75.60;;;;;;6233293;23;19956;-96
2022/06/06 22:03:52;;;;;;;;;;;21.30;75.70;;;;;;6207977;23;19975;-96
2022/06/06 22:06:19;;;;;;;;;;;21.40;75.30;;;;;;6208287;23;19950;-96
2022/06/06 22:08:45;;;;;;;;;;;21.40;75.50;;;;;;6208094;23;20025;-96
2022/06/06 22:11:11;;;;;;;;;;;21.40;75.40;;;;;;6233922;23;19956;-96
2022/06/06 22:13:38;;;;;;;;;;;21.30;75.50;;;;;;6233946;23;19932;-96
2022/06/06 22:16:04;;;;;;;;;;;21.30;75.80;;;;;;6226616;23;19996;-96
2022/06/06 22:18:30;;;;;;;;;;;21.20;75.60;;;;;;6224891;23;19939;-96
2022/06/06 22:20:56;;;;;;;;;;;21.20;75.50;;;;;;6225130;23;19956;-96
2022/06/06 22:23:21;;;;;;;;;;;21.20;75.70;;;;;;6223819;23;19967;-96
2022/06/06 22:25:47;;;;;;;;;;;21.10;76.40;;;;;;6223944;23;19957;-96
2022/06/06 22:28:13;;;;;;;;;;;21.00;76.10;;;;;;6204216;23;19937;-96
2022/06/06 22:30:39;;;;;;;;;;;21.10;75.90;;;;;;6232429;23;19940;-96
2022/06/06 22:33:06;;;;;;;;;;;21.20;75.90;;;;;;6233991;23;19965;-96
2022/06/06 22:35:32;;;;;;;;;;;21.30;76.30;;;;;;6207137;23;19949;-96
2022/06/06 22:37:58;;;;;;;;;;;21.30;76.50;;;;;;6209693;23;19937;-96
2022/06/06 22:40:24;;;;;;;;;;;21.30;76.00;;;;;;6209954;23;19960;-96
2022/06/06 22:42:50;;;;;;;;;;;21.30;75.90;;;;;;6235239;23;19998;-96
2022/06/06 22:45:16;;;;;;;;;;;21.40;75.30;;;;;;6236305;23;19938;-96
2022/06/06 22:47:42;;;;;;;;;;;21.40;75.80;;;;;;6209766;23;19938;-96
2022/06/06 22:50:08;;;;;;;;;;;21.30;75.50;;;;;;6209294;23;19962;-96
2022/06/06 22:52:34;;;;;;;;;;;21.10;74.90;;;;;;6236024;23;19936;-96
2022/06/06 22:55:01;;;;;;;;;;;21.00;75.40;;;;;;6209000;23;20022;-96
2022/06/06 22:57:27;;;;;;;;;;;20.90;74.90;;;;;;6208416;23;19943;-96
2022/06/06 22:59:53;;;;;;;;;;;21.00;74.80;;;;;;6208650;23;20336;-96
2022/06/06 23:02:19;;;;;;;;;;;21.00;74.70;;;;;;6209261;23;19962;-96
2022/06/06 23:04:48;;;;;;;;;;;20.90;73.30;;;;;;6209608;23;19951;-96
2022/06/06 23:07:13;;;;;;;;;;;20.90;72.60;;;;;;6235658;23;19938;-96
2022/06/06 23:09:42;;;;;;;;;;;21.00;74.70;;;;;;6209148;23;19941;-96
2022/06/06 23:12:09;;;;;;;;;;;21.00;75.00;;;;;;6209812;23;19935;-96
2022/06/06 23:14:35;;;;;;;;;;;21.00;74.60;;;;;;6207972;23;19956;-96
2022/06/06 23:17:01;;;;;;;;;;;21.00;75.00;;;;;;6209197;23;19941;-96
2022/06/06 23:19:27;;;;;;;;;;;21.00;75.20;;;;;;6208321;23;19986;-97
2022/06/06 23:21:53;;;;;;;;;;;21.10;74.40;;;;;;6208751;23;20038;-96
2022/06/06 23:24:19;;;;;;;;;;;21.10;74.40;;;;;;6209023;23;19994;-96
2022/06/06 23:26:45;;;;;;;;;;;21.10;75.50;;;;;;6236522;23;19950;-96
2022/06/06 23:29:13;;;;;;;;;;;21.00;74.90;;;;;;6235825;23;19937;-96
2022/06/06 23:31:40;;;;;;;;;;;21.00;74.80;;;;;;6207972;23;19935;-96
2022/06/06 23:34:09;;;;;;;;;;;21.00;74.90;;;;;;6208505;23;19943;-96
2022/06/06 23:36:42;;;;;;;;;;;21.00;74.70;;;;;;6234188;23;19935;-96
2022/06/06 23:39:11;;;;;;;;;;;21.00;75.70;;;;;;6199176;23;19980;-96
2022/06/06 23:41:38;;;;;;;;;;;20.90;75.20;;;;;;6198695;23;19961;-96
2022/06/06 23:44:03;;;;;;;;;;;20.90;75.30;;;;;;6225925;23;19976;-96
2022/06/06 23:49:29;;;;;;;;;;;20.80;75.50;;;;;;6184792;23;19936;-96
2022/06/06 23:52:00;;;;;;;;;;;20.80;76.30;;;;;;6211663;23;19942;-96
2022/06/06 23:54:27;;;;;;;;;;;20.70;76.60;;;;;;6237390;23;19960;-96
2022/06/06 23:59:39;;;;;;;;;;;20.70;76.90;;;;;;6238401;23;19939;-96
